sensor_id;sensor_type;location;lat;lon;timestamp;P1;durP1;ratioP1;P2;durP2;ratioP2
33902;SDS011;20194;50.950;5.346;2023-09-19T00:00:23;20.23;;;3.63;;
33902;SDS011;20194;50.950;5.346;2023-09-19T00:02:57;13.77;;;2.20;;
33902;SDS011;20194;50.950;5.346;2023-09-19T00:05:26;11.77;;;2.40;;
33902;SDS011;20194;50.950;5.346;2023-09-19T00:07:53;8.35;;;2.03;;
33902;SDS011;20194;50.950;5.346;2023-09-19T00:10:27;15.93;;;3.42;;
33902;SDS011;20194;50.950;5.346;2023-09-19T00:12:56;10.07;;;2.50;;
33902;SDS011;20194;50.950;5.346;2023-09-19T00:15:25;11.90;;;2.47;;
33902;SDS011;20194;50.950;5.346;2023-09-19T00:17:54;11.55;;;2.17;;
33902;SDS011;20194;50.950;5.346;2023-09-19T00:20:21;12.55;;;2.28;;
33902;SDS011;20194;50.950;5.346;2023-09-19T00:22:48;13.68;;;2.25;;
33902;SDS011;20194;50.950;5.346;2023-09-19T00:25:18;17.52;;;3.33;;
33902;SDS011;20194;50.950;5.346;2023-09-19T00:27:45;15.27;;;2.47;;
33902;SDS011;20194;50.950;5.346;2023-09-19T00:30:16;14.18;;;2.72;;
33902;SDS011;20194;50.950;5.346;2023-09-19T00:32:49;8.48;;;2.05;;
33902;SDS011;20194;50.950;5.346;2023-09-19T00:35:19;16.33;;;2.65;;
33902;SDS011;20194;50.950;5.346;2023-09-19T00:37:51;13.80;;;2.30;;
33902;SDS011;20194;50.950;5.346;2023-09-19T00:40:17;15.00;;;2.95;;
33902;SDS011;20194;50.950;5.346;2023-09-19T00:42:43;9.90;;;2.40;;
33902;SDS011;20194;50.950;5.346;2023-09-19T00:45:11;8.48;;;2.00;;
33902;SDS011;20194;50.950;5.346;2023-09-19T00:47:38;14.40;;;2.38;;
33902;SDS011;20194;50.950;5.346;2023-09-19T00:50:06;14.63;;;2.63;;
33902;SDS011;20194;50.950;5.346;2023-09-19T00:52:34;14.52;;;3.03;;
33902;SDS011;20194;50.950;5.346;2023-09-19T00:55:04;14.57;;;2.95;;
33902;SDS011;20194;50.950;5.346;2023-09-19T00:57:32;19.27;;;2.72;;
33902;SDS011;20194;50.950;5.346;2023-09-19T00:59:59;13.10;;;2.03;;
33902;SDS011;20194;50.950;5.346;2023-09-19T01:02:30;11.27;;;2.35;;
33902;SDS011;20194;50.950;5.346;2023-09-19T01:04:57;16.33;;;3.30;;
33902;SDS011;20194;50.950;5.346;2023-09-19T01:07:23;15.20;;;2.40;;
33902;SDS011;20194;50.950;5.346;2023-09-19T01:09:49;17.67;;;2.72;;
33902;SDS011;20194;50.950;5.346;2023-09-19T01:12:16;16.23;;;2.72;;
33902;SDS011;20194;50.950;5.346;2023-09-19T01:14:55;17.83;;;3.40;;
33902;SDS011;20194;50.950;5.346;2023-09-19T01:17:30;14.05;;;2.03;;
33902;SDS011;20194;50.950;5.346;2023-09-19T01:20:15;13.35;;;2.22;;
33902;SDS011;20194;50.950;5.346;2023-09-19T01:22:53;14.45;;;2.05;;
33902;SDS011;20194;50.950;5.346;2023-09-19T01:25:40;12.27;;;3.17;;
33902;SDS011;20194;50.950;5.346;2023-09-19T01:28:34;13.27;;;2.72;;
33902;SDS011;20194;50.950;5.346;2023-09-19T01:36:25;6.88;;;1.60;;
33902;SDS011;20194;50.950;5.346;2023-09-19T01:38:55;14.73;;;2.88;;
33902;SDS011;20194;50.950;5.346;2023-09-19T01:41:31;14.20;;;2.92;;
33902;SDS011;20194;50.950;5.346;2023-09-19T01:44:03;10.40;;;2.38;;
33902;SDS011;20194;50.950;5.346;2023-09-19T01:46:34;8.82;;;2.47;;
33902;SDS011;20194;50.950;5.346;2023-09-19T01:54:30;19.73;;;2.92;;
33902;SDS011;20194;50.950;5.346;2023-09-19T01:57:07;13.70;;;2.22;;
33902;SDS011;20194;50.950;5.346;2023-09-19T01:59:41;14.07;;;2.47;;
33902;SDS011;20194;50.950;5.346;2023-09-19T02:02:13;12.60;;;2.63;;
33902;SDS011;20194;50.950;5.346;2023-09-19T02:04:42;15.02;;;2.72;;
33902;SDS011;20194;50.950;5.346;2023-09-19T02:07:08;14.65;;;2.72;;
33902;SDS011;20194;50.950;5.346;2023-09-19T02:09:34;10.75;;;2.65;;
33902;SDS011;20194;50.950;5.346;2023-09-19T02:12:04;15.10;;;2.30;;
33902;SDS011;20194;50.950;5.346;2023-09-19T02:14:30;9.68;;;2.47;;
33902;SDS011;20194;50.950;5.346;2023-09-19T02:16:56;11.93;;;2.13;;
33902;SDS011;20194;50.950;5.346;2023-09-19T02:19:22;9.13;;;2.00;;
33902;SDS011;20194;50.950;5.346;2023-09-19T02:21:48;11.30;;;2.53;;
33902;SDS011;20194;50.950;5.346;2023-09-19T02:24:14;16.42;;;3.58;;
33902;SDS011;20194;50.950;5.346;2023-09-19T02:26:40;12.30;;;2.53;;
33902;SDS011;20194;50.950;5.346;2023-09-19T02:29:06;13.05;;;2.88;;
33902;SDS011;20194;50.950;5.346;2023-09-19T02:31:32;17.67;;;2.65;;
33902;SDS011;20194;50.950;5.346;2023-09-19T02:33:57;14.32;;;2.40;;
33902;SDS011;20194;50.950;5.346;2023-09-19T02:36:25;16.70;;;2.70;;
33902;SDS011;20194;50.950;5.346;2023-09-19T02:38:51;10.90;;;2.53;;
33902;SDS011;20194;50.950;5.346;2023-09-19T02:41:16;12.00;;;2.72;;
33902;SDS011;20194;50.950;5.346;2023-09-19T02:43:42;12.77;;;2.30;;
33902;SDS011;20194;50.950;5.346;2023-09-19T02:46:08;14.05;;;2.58;;
33902;SDS011;20194;50.950;5.346;2023-09-19T02:48:34;14.23;;;2.13;;
33902;SDS011;20194;50.950;5.346;2023-09-19T02:51:00;13.10;;;2.38;;
33902;SDS011;20194;50.950;5.346;2023-09-19T02:53:28;6.05;;;2.10;;
33902;SDS011;20194;50.950;5.346;2023-09-19T02:55:55;13.15;;;2.78;;
33902;SDS011;20194;50.950;5.346;2023-09-19T02:58:21;13.50;;;2.40;;
33902;SDS011;20194;50.950;5.346;2023-09-19T03:00:49;10.98;;;2.95;;
33902;SDS011;20194;50.950;5.346;2023-09-19T03:03:16;16.17;;;2.50;;
33902;SDS011;20194;50.950;5.346;2023-09-19T03:05:42;10.77;;;2.50;;
33902;SDS011;20194;50.950;5.346;2023-09-19T03:08:12;12.02;;;2.30;;
33902;SDS011;20194;50.950;5.346;2023-09-19T03:10:40;13.45;;;2.85;;
33902;SDS011;20194;50.950;5.346;2023-09-19T03:13:06;16.00;;;2.42;;
33902;SDS011;20194;50.950;5.346;2023-09-19T03:15:34;10.13;;;1.98;;
33902;SDS011;20194;50.950;5.346;2023-09-19T03:18:03;9.55;;;1.98;;
33902;SDS011;20194;50.950;5.346;2023-09-19T03:20:29;13.63;;;2.40;;
33902;SDS011;20194;50.950;5.346;2023-09-19T03:22:55;12.48;;;2.50;;
33902;SDS011;20194;50.950;5.346;2023-09-19T03:25:22;27.20;;;4.53;;
33902;SDS011;20194;50.950;5.346;2023-09-19T03:27:48;16.77;;;2.33;;
33902;SDS011;20194;50.950;5.346;2023-09-19T03:30:14;12.73;;;2.40;;
33902;SDS011;20194;50.950;5.346;2023-09-19T03:32:46;27.38;;;3.10;;
33902;SDS011;20194;50.950;5.346;2023-09-19T03:35:14;12.68;;;2.63;;
33902;SDS011;20194;50.950;5.346;2023-09-19T03:37:41;22.67;;;3.42;;
33902;SDS011;20194;50.950;5.346;2023-09-19T03:40:08;17.25;;;2.33;;
33902;SDS011;20194;50.950;5.346;2023-09-19T03:42:39;13.43;;;2.80;;
33902;SDS011;20194;50.950;5.346;2023-09-19T03:45:06;16.48;;;2.67;;
33902;SDS011;20194;50.950;5.346;2023-09-19T03:47:36;17.30;;;2.38;;
33902;SDS011;20194;50.950;5.346;2023-09-19T03:50:02;11.73;;;2.55;;
33902;SDS011;20194;50.950;5.346;2023-09-19T03:52:28;14.95;;;2.75;;
33902;SDS011;20194;50.950;5.346;2023-09-19T03:54:54;14.57;;;2.92;;
33902;SDS011;20194;50.950;5.346;2023-09-19T03:57:19;9.60;;;2.35;;
33902;SDS011;20194;50.950;5.346;2023-09-19T03:59:46;14.68;;;3.38;;
33902;SDS011;20194;50.950;5.346;2023-09-19T04:02:12;9.40;;;2.33;;
33902;SDS011;20194;50.950;5.346;2023-09-19T04:04:47;22.20;;;3.20;;
33902;SDS011;20194;50.950;5.346;2023-09-19T04:07:13;13.73;;;3.05;;
33902;SDS011;20194;50.950;5.346;2023-09-19T04:09:39;12.57;;;2.20;;
33902;SDS011;20194;50.950;5.346;2023-09-19T04:12:05;15.70;;;3.17;;
33902;SDS011;20194;50.950;5.346;2023-09-19T04:14:34;13.00;;;2.40;;
33902;SDS011;20194;50.950;5.346;2023-09-19T04:16:59;18.58;;;2.42;;
33902;SDS011;20194;50.950;5.346;2023-09-19T04:19:26;12.13;;;2.17;;
33902;SDS011;20194;50.950;5.346;2023-09-19T04:21:51;15.35;;;2.45;;
33902;SDS011;20194;50.950;5.346;2023-09-19T04:24:17;14.00;;;2.58;;
33902;SDS011;20194;50.950;5.346;2023-09-19T04:26:44;15.98;;;2.70;;
33902;SDS011;20194;50.950;5.346;2023-09-19T04:29:10;14.95;;;2.58;;
33902;SDS011;20194;50.950;5.346;2023-09-19T04:31:38;11.88;;;2.55;;
33902;SDS011;20194;50.950;5.346;2023-09-19T04:34:08;14.43;;;2.85;;
33902;SDS011;20194;50.950;5.346;2023-09-19T04:36:35;10.35;;;2.17;;
33902;SDS011;20194;50.950;5.346;2023-09-19T04:39:01;9.57;;;2.35;;
33902;SDS011;20194;50.950;5.346;2023-09-19T04:41:30;9.55;;;2.22;;
33902;SDS011;20194;50.950;5.346;2023-09-19T04:43:56;10.15;;;2.50;;
33902;SDS011;20194;50.950;5.346;2023-09-19T04:46:22;6.45;;;2.28;;
33902;SDS011;20194;50.950;5.346;2023-09-19T04:48:47;8.93;;;2.20;;
33902;SDS011;20194;50.950;5.346;2023-09-19T04:51:13;7.53;;;2.05;;
33902;SDS011;20194;50.950;5.346;2023-09-19T04:53:40;16.80;;;2.55;;
33902;SDS011;20194;50.950;5.346;2023-09-19T04:56:06;12.73;;;2.50;;
33902;SDS011;20194;50.950;5.346;2023-09-19T04:58:33;22.30;;;2.80;;
33902;SDS011;20194;50.950;5.346;2023-09-19T05:00:59;15.52;;;2.30;;
33902;SDS011;20194;50.950;5.346;2023-09-19T05:03:29;15.18;;;2.50;;
33902;SDS011;20194;50.950;5.346;2023-09-19T05:05:55;28.20;;;5.00;;
33902;SDS011;20194;50.950;5.346;2023-09-19T05:08:20;18.42;;;3.65;;
33902;SDS011;20194;50.950;5.346;2023-09-19T05:10:47;15.35;;;2.63;;
33902;SDS011;20194;50.950;5.346;2023-09-19T05:13:14;11.30;;;2.28;;
33902;SDS011;20194;50.950;5.346;2023-09-19T05:15:40;19.85;;;2.97;;
33902;SDS011;20194;50.950;5.346;2023-09-19T05:18:06;15.18;;;2.13;;
33902;SDS011;20194;50.950;5.346;2023-09-19T05:20:32;15.82;;;2.50;;
33902;SDS011;20194;50.950;5.346;2023-09-19T05:25:28;11.63;;;1.92;;
33902;SDS011;20194;50.950;5.346;2023-09-19T05:27:56;19.77;;;3.03;;
33902;SDS011;20194;50.950;5.346;2023-09-19T05:30:23;14.45;;;2.67;;
33902;SDS011;20194;50.950;5.346;2023-09-19T05:32:49;15.75;;;2.40;;
33902;SDS011;20194;50.950;5.346;2023-09-19T05:35:16;11.35;;;2.75;;
33902;SDS011;20194;50.950;5.346;2023-09-19T05:37:42;11.68;;;2.42;;
33902;SDS011;20194;50.950;5.346;2023-09-19T05:40:08;11.23;;;2.17;;
33902;SDS011;20194;50.950;5.346;2023-09-19T05:42:37;15.85;;;2.90;;
33902;SDS011;20194;50.950;5.346;2023-09-19T05:45:04;17.70;;;2.45;;
33902;SDS011;20194;50.950;5.346;2023-09-19T05:47:31;9.40;;;2.97;;
33902;SDS011;20194;50.950;5.346;2023-09-19T05:49:57;9.60;;;2.17;;
33902;SDS011;20194;50.950;5.346;2023-09-19T05:52:24;13.27;;;2.40;;
33902;SDS011;20194;50.950;5.346;2023-09-19T05:54:50;12.13;;;2.63;;
33902;SDS011;20194;50.950;5.346;2023-09-19T05:57:16;18.52;;;2.85;;
33902;SDS011;20194;50.950;5.346;2023-09-19T05:59:41;8.52;;;2.42;;
33902;SDS011;20194;50.950;5.346;2023-09-19T06:02:08;12.18;;;2.53;;
33902;SDS011;20194;50.950;5.346;2023-09-19T06:04:34;21.77;;;2.83;;
33902;SDS011;20194;50.950;5.346;2023-09-19T06:07:00;19.23;;;3.22;;
33902;SDS011;20194;50.950;5.346;2023-09-19T06:09:29;19.00;;;3.63;;
33902;SDS011;20194;50.950;5.346;2023-09-19T06:11:57;14.00;;;2.50;;
33902;SDS011;20194;50.950;5.346;2023-09-19T06:14:23;11.75;;;2.67;;
33902;SDS011;20194;50.950;5.346;2023-09-19T06:16:49;13.70;;;3.00;;
33902;SDS011;20194;50.950;5.346;2023-09-19T06:19:16;12.13;;;2.63;;
33902;SDS011;20194;50.950;5.346;2023-09-19T06:21:41;12.30;;;2.60;;
33902;SDS011;20194;50.950;5.346;2023-09-19T06:24:08;10.93;;;2.40;;
33902;SDS011;20194;50.950;5.346;2023-09-19T06:26:34;10.25;;;2.55;;
33902;SDS011;20194;50.950;5.346;2023-09-19T06:29:00;25.50;;;4.03;;
33902;SDS011;20194;50.950;5.346;2023-09-19T06:31:25;12.35;;;2.17;;
33902;SDS011;20194;50.950;5.346;2023-09-19T06:33:51;14.18;;;2.95;;
33902;SDS011;20194;50.950;5.346;2023-09-19T06:36:17;14.90;;;2.17;;
33902;SDS011;20194;50.950;5.346;2023-09-19T06:38:44;19.08;;;3.03;;
33902;SDS011;20194;50.950;5.346;2023-09-19T06:41:10;11.20;;;2.20;;
33902;SDS011;20194;50.950;5.346;2023-09-19T06:43:36;12.48;;;2.17;;
33902;SDS011;20194;50.950;5.346;2023-09-19T06:46:02;14.25;;;3.65;;
33902;SDS011;20194;50.950;5.346;2023-09-19T06:48:28;14.40;;;2.47;;
33902;SDS011;20194;50.950;5.346;2023-09-19T06:50:58;15.40;;;2.92;;
33902;SDS011;20194;50.950;5.346;2023-09-19T06:53:29;18.73;;;3.15;;
33902;SDS011;20194;50.950;5.346;2023-09-19T06:55:59;20.58;;;2.53;;
33902;SDS011;20194;50.950;5.346;2023-09-19T06:58:25;22.35;;;2.80;;
33902;SDS011;20194;50.950;5.346;2023-09-19T07:00:52;11.75;;;2.40;;
33902;SDS011;20194;50.950;5.346;2023-09-19T07:03:18;14.77;;;2.75;;
33902;SDS011;20194;50.950;5.346;2023-09-19T07:05:47;21.35;;;3.53;;
33902;SDS011;20194;50.950;5.346;2023-09-19T07:08:13;10.35;;;2.10;;
33902;SDS011;20194;50.950;5.346;2023-09-19T07:10:40;16.20;;;2.28;;
33902;SDS011;20194;50.950;5.346;2023-09-19T07:13:07;13.60;;;2.20;;
33902;SDS011;20194;50.950;5.346;2023-09-19T07:15:35;10.52;;;2.05;;
33902;SDS011;20194;50.950;5.346;2023-09-19T07:18:04;14.82;;;2.67;;
33902;SDS011;20194;50.950;5.346;2023-09-19T07:20:31;16.92;;;2.30;;
33902;SDS011;20194;50.950;5.346;2023-09-19T07:23:00;26.02;;;3.40;;
33902;SDS011;20194;50.950;5.346;2023-09-19T07:25:26;11.88;;;1.98;;
33902;SDS011;20194;50.950;5.346;2023-09-19T07:27:54;11.23;;;2.55;;
33902;SDS011;20194;50.950;5.346;2023-09-19T07:30:21;10.25;;;1.92;;
33902;SDS011;20194;50.950;5.346;2023-09-19T07:32:47;9.70;;;1.83;;
33902;SDS011;20194;50.950;5.346;2023-09-19T07:35:13;10.52;;;2.00;;
33902;SDS011;20194;50.950;5.346;2023-09-19T07:37:40;17.52;;;3.05;;
33902;SDS011;20194;50.950;5.346;2023-09-19T07:40:06;8.30;;;2.05;;
33902;SDS011;20194;50.950;5.346;2023-09-19T07:42:33;12.77;;;2.35;;
33902;SDS011;20194;50.950;5.346;2023-09-19T07:45:02;8.57;;;1.73;;
33902;SDS011;20194;50.950;5.346;2023-09-19T07:47:28;7.70;;;1.80;;
33902;SDS011;20194;50.950;5.346;2023-09-19T07:49:55;11.50;;;2.75;;
33902;SDS011;20194;50.950;5.346;2023-09-19T07:52:21;14.55;;;2.30;;
33902;SDS011;20194;50.950;5.346;2023-09-19T07:54:47;17.08;;;2.15;;
33902;SDS011;20194;50.950;5.346;2023-09-19T07:57:14;9.60;;;1.83;;
33902;SDS011;20194;50.950;5.346;2023-09-19T07:59:40;9.23;;;2.13;;
33902;SDS011;20194;50.950;5.346;2023-09-19T08:02:07;7.53;;;1.65;;
33902;SDS011;20194;50.950;5.346;2023-09-19T08:04:40;10.10;;;2.10;;
33902;SDS011;20194;50.950;5.346;2023-09-19T08:07:10;14.43;;;2.28;;
33902;SDS011;20194;50.950;5.346;2023-09-19T08:09:36;14.00;;;2.35;;
33902;SDS011;20194;50.950;5.346;2023-09-19T08:12:03;13.13;;;2.20;;
33902;SDS011;20194;50.950;5.346;2023-09-19T08:14:30;12.73;;;1.75;;
33902;SDS011;20194;50.950;5.346;2023-09-19T08:16:56;15.48;;;2.40;;
33902;SDS011;20194;50.950;5.346;2023-09-19T08:19:24;12.57;;;1.98;;
33902;SDS011;20194;50.950;5.346;2023-09-19T08:21:54;8.02;;;1.83;;
33902;SDS011;20194;50.950;5.346;2023-09-19T08:24:23;15.27;;;2.15;;
33902;SDS011;20194;50.950;5.346;2023-09-19T08:26:53;14.10;;;1.98;;
33902;SDS011;20194;50.950;5.346;2023-09-19T08:29:20;20.65;;;2.72;;
33902;SDS011;20194;50.950;5.346;2023-09-19T08:31:46;14.15;;;2.17;;
33902;SDS011;20194;50.950;5.346;2023-09-19T08:34:14;13.10;;;2.90;;
33902;SDS011;20194;50.950;5.346;2023-09-19T08:36:40;9.57;;;1.83;;
33902;SDS011;20194;50.950;5.346;2023-09-19T08:39:08;11.80;;;2.25;;
33902;SDS011;20194;50.950;5.346;2023-09-19T08:41:34;9.75;;;2.30;;
33902;SDS011;20194;50.950;5.346;2023-09-19T08:44:00;18.85;;;3.15;;
33902;SDS011;20194;50.950;5.346;2023-09-19T08:46:30;12.57;;;2.30;;
33902;SDS011;20194;50.950;5.346;2023-09-19T08:48:58;9.93;;;2.50;;
33902;SDS011;20194;50.950;5.346;2023-09-19T08:51:30;10.43;;;3.08;;
33902;SDS011;20194;50.950;5.346;2023-09-19T08:54:07;12.38;;;2.25;;
33902;SDS011;20194;50.950;5.346;2023-09-19T08:56:33;11.82;;;2.75;;
33902;SDS011;20194;50.950;5.346;2023-09-19T08:59:06;10.73;;;2.33;;
33902;SDS011;20194;50.950;5.346;2023-09-19T09:01:36;17.38;;;3.17;;
33902;SDS011;20194;50.950;5.346;2023-09-19T09:04:04;11.27;;;2.10;;
33902;SDS011;20194;50.950;5.346;2023-09-19T09:06:34;13.90;;;2.78;;
33902;SDS011;20194;50.950;5.346;2023-09-19T09:09:01;10.10;;;2.13;;
33902;SDS011;20194;50.950;5.346;2023-09-19T09:11:31;17.13;;;2.42;;
33902;SDS011;20194;50.950;5.346;2023-09-19T09:13:58;12.27;;;2.15;;
33902;SDS011;20194;50.950;5.346;2023-09-19T09:16:24;8.93;;;2.42;;
33902;SDS011;20194;50.950;5.346;2023-09-19T09:18:51;13.68;;;2.63;;
33902;SDS011;20194;50.950;5.346;2023-09-19T09:21:19;13.98;;;2.17;;
33902;SDS011;20194;50.950;5.346;2023-09-19T09:23:47;16.85;;;2.40;;
33902;SDS011;20194;50.950;5.346;2023-09-19T09:26:14;16.67;;;2.95;;
33902;SDS011;20194;50.950;5.346;2023-09-19T09:28:44;7.68;;;2.13;;
33902;SDS011;20194;50.950;5.346;2023-09-19T09:31:23;9.43;;;2.67;;
33902;SDS011;20194;50.950;5.346;2023-09-19T09:33:53;8.20;;;2.30;;
33902;SDS011;20194;50.950;5.346;2023-09-19T09:36:33;13.23;;;2.70;;
33902;SDS011;20194;50.950;5.346;2023-09-19T09:39:04;15.23;;;2.90;;
33902;SDS011;20194;50.950;5.346;2023-09-19T09:41:50;21.40;;;2.75;;
33902;SDS011;20194;50.950;5.346;2023-09-19T09:44:17;8.95;;;1.98;;
33902;SDS011;20194;50.950;5.346;2023-09-19T09:46:44;11.35;;;2.15;;
33902;SDS011;20194;50.950;5.346;2023-09-19T09:49:22;10.77;;;2.80;;
33902;SDS011;20194;50.950;5.346;2023-09-19T09:52:02;9.98;;;2.38;;
33902;SDS011;20194;50.950;5.346;2023-09-19T09:54:32;11.27;;;2.45;;
33902;SDS011;20194;50.950;5.346;2023-09-19T09:57:02;8.85;;;2.40;;
33902;SDS011;20194;50.950;5.346;2023-09-19T09:59:54;12.32;;;2.83;;
33902;SDS011;20194;50.950;5.346;2023-09-19T10:02:39;11.85;;;2.95;;
33902;SDS011;20194;50.950;5.346;2023-09-19T10:05:13;11.57;;;2.88;;
33902;SDS011;20194;50.950;5.346;2023-09-19T10:07:50;9.00;;;2.15;;
33902;SDS011;20194;50.950;5.346;2023-09-19T10:13:06;6.10;;;1.60;;
33902;SDS011;20194;50.950;5.346;2023-09-19T10:15:37;7.25;;;1.75;;
33902;SDS011;20194;50.950;5.346;2023-09-19T10:18:06;11.38;;;2.15;;
33902;SDS011;20194;50.950;5.346;2023-09-19T10:20:36;12.50;;;2.53;;
33902;SDS011;20194;50.950;5.346;2023-09-19T10:23:08;10.05;;;2.83;;
33902;SDS011;20194;50.950;5.346;2023-09-19T10:25:37;6.68;;;2.03;;
33902;SDS011;20194;50.950;5.346;2023-09-19T10:28:07;8.02;;;1.77;;
33902;SDS011;20194;50.950;5.346;2023-09-19T10:30:37;9.63;;;1.95;;
33902;SDS011;20194;50.950;5.346;2023-09-19T10:33:09;10.43;;;2.10;;
33902;SDS011;20194;50.950;5.346;2023-09-19T10:35:38;9.70;;;2.72;;
33902;SDS011;20194;50.950;5.346;2023-09-19T10:38:11;10.63;;;1.92;;
33902;SDS011;20194;50.950;5.346;2023-09-19T10:40:39;11.35;;;2.47;;
33902;SDS011;20194;50.950;5.346;2023-09-19T10:43:08;8.00;;;1.88;;
33902;SDS011;20194;50.950;5.346;2023-09-19T10:45:44;10.90;;;1.70;;
33902;SDS011;20194;50.950;5.346;2023-09-19T10:48:12;9.95;;;2.15;;
33902;SDS011;20194;50.950;5.346;2023-09-19T10:50:44;11.82;;;2.13;;
33902;SDS011;20194;50.950;5.346;2023-09-19T10:53:15;9.10;;;1.75;;
33902;SDS011;20194;50.950;5.346;2023-09-19T10:55:47;9.15;;;2.08;;
33902;SDS011;20194;50.950;5.346;2023-09-19T10:58:26;12.50;;;2.10;;
33902;SDS011;20194;50.950;5.346;2023-09-19T11:00:54;10.10;;;2.10;;
33902;SDS011;20194;50.950;5.346;2023-09-19T11:03:27;8.43;;;1.85;;
33902;SDS011;20194;50.950;5.346;2023-09-19T11:06:03;9.05;;;1.70;;
33902;SDS011;20194;50.950;5.346;2023-09-19T11:11:47;8.82;;;1.27;;
33902;SDS011;20194;50.950;5.346;2023-09-19T11:30:32;8.20;;;2.17;;
33902;SDS011;20194;50.950;5.346;2023-09-19T11:46:34;8.32;;;1.48;;
33902;SDS011;20194;50.950;5.346;2023-09-19T11:49:28;6.18;;;1.40;;
33902;SDS011;20194;50.950;5.346;2023-09-19T11:51:55;6.07;;;1.65;;
33902;SDS011;20194;50.950;5.346;2023-09-19T11:54:22;12.13;;;2.03;;
33902;SDS011;20194;50.950;5.346;2023-09-19T11:56:50;9.18;;;1.25;;
33902;SDS011;20194;50.950;5.346;2023-09-19T11:59:23;9.68;;;1.60;;
33902;SDS011;20194;50.950;5.346;2023-09-19T12:01:53;5.93;;;1.23;;
33902;SDS011;20194;50.950;5.346;2023-09-19T12:07:09;6.28;;;1.35;;
33902;SDS011;20194;50.950;5.346;2023-09-19T12:09:41;9.23;;;1.55;;
33902;SDS011;20194;50.950;5.346;2023-09-19T12:12:25;7.95;;;1.80;;
33902;SDS011;20194;50.950;5.346;2023-09-19T12:14:58;7.40;;;1.20;;
33902;SDS011;20194;50.950;5.346;2023-09-19T12:17:37;3.75;;;0.90;;
33902;SDS011;20194;50.950;5.346;2023-09-19T12:20:08;5.72;;;1.40;;
33902;SDS011;20194;50.950;5.346;2023-09-19T12:22:45;7.35;;;1.50;;
33902;SDS011;20194;50.950;5.346;2023-09-19T12:25:14;7.05;;;1.30;;
33902;SDS011;20194;50.950;5.346;2023-09-19T12:27:45;4.75;;;1.20;;
33902;SDS011;20194;50.950;5.346;2023-09-19T12:30:12;6.28;;;1.17;;
33902;SDS011;20194;50.950;5.346;2023-09-19T12:32:43;2.83;;;0.90;;
33902;SDS011;20194;50.950;5.346;2023-09-19T12:35:09;8.07;;;1.23;;
33902;SDS011;20194;50.950;5.346;2023-09-19T12:37:51;4.57;;;1.10;;
33902;SDS011;20194;50.950;5.346;2023-09-19T12:40:20;4.53;;;0.90;;
33902;SDS011;20194;50.950;5.346;2023-09-19T12:42:50;7.25;;;1.17;;
33902;SDS011;20194;50.950;5.346;2023-09-19T12:45:18;4.18;;;1.08;;
33902;SDS011;20194;50.950;5.346;2023-09-19T12:53:28;18.17;;;1.48;;
33902;SDS011;20194;50.950;5.346;2023-09-19T12:55:58;4.22;;;1.15;;
33902;SDS011;20194;50.950;5.346;2023-09-19T12:58:24;6.85;;;0.90;;
33902;SDS011;20194;50.950;5.346;2023-09-19T13:00:50;5.60;;;0.68;;
33902;SDS011;20194;50.950;5.346;2023-09-19T13:05:56;5.72;;;1.17;;
33902;SDS011;20194;50.950;5.346;2023-09-19T13:08:25;8.93;;;2.80;;
33902;SDS011;20194;50.950;5.346;2023-09-19T13:13:25;8.30;;;0.75;;
33902;SDS011;20194;50.950;5.346;2023-09-19T13:15:53;14.85;;;1.48;;
33902;SDS011;20194;50.950;5.346;2023-09-19T13:18:19;5.70;;;1.20;;
33902;SDS011;20194;50.950;5.346;2023-09-19T13:21:05;6.20;;;0.70;;
33902;SDS011;20194;50.950;5.346;2023-09-19T13:23:48;10.60;;;1.35;;
33902;SDS011;20194;50.950;5.346;2023-09-19T13:26:19;7.07;;;1.20;;
33902;SDS011;20194;50.950;5.346;2023-09-19T13:28:45;5.05;;;1.02;;
33902;SDS011;20194;50.950;5.346;2023-09-19T13:31:13;5.43;;;1.08;;
33902;SDS011;20194;50.950;5.346;2023-09-19T13:33:45;10.23;;;1.02;;
33902;SDS011;20194;50.950;5.346;2023-09-19T13:36:12;7.18;;;2.67;;
33902;SDS011;20194;50.950;5.346;2023-09-19T13:38:42;5.53;;;1.20;;
33902;SDS011;20194;50.950;5.346;2023-09-19T13:41:09;8.50;;;1.30;;
33902;SDS011;20194;50.950;5.346;2023-09-19T13:43:38;4.30;;;0.85;;
33902;SDS011;20194;50.950;5.346;2023-09-19T13:46:04;5.32;;;1.15;;
33902;SDS011;20194;50.950;5.346;2023-09-19T13:48:32;4.15;;;1.05;;
33902;SDS011;20194;50.950;5.346;2023-09-19T13:51:00;1.30;;;0.73;;
33902;SDS011;20194;50.950;5.346;2023-09-19T13:53:27;5.57;;;1.00;;
33902;SDS011;20194;50.950;5.346;2023-09-19T13:55:52;6.80;;;1.60;;
33902;SDS011;20194;50.950;5.346;2023-09-19T13:58:20;7.75;;;1.20;;
33902;SDS011;20194;50.950;5.346;2023-09-19T14:00:47;5.53;;;1.38;;
33902;SDS011;20194;50.950;5.346;2023-09-19T14:03:13;6.03;;;1.48;;
33902;SDS011;20194;50.950;5.346;2023-09-19T14:05:39;7.07;;;1.23;;
33902;SDS011;20194;50.950;5.346;2023-09-19T14:08:05;3.03;;;1.52;;
33902;SDS011;20194;50.950;5.346;2023-09-19T14:10:31;8.52;;;1.58;;
33902;SDS011;20194;50.950;5.346;2023-09-19T14:12:57;6.28;;;1.50;;
33902;SDS011;20194;50.950;5.346;2023-09-19T14:15:24;7.13;;;1.30;;
33902;SDS011;20194;50.950;5.346;2023-09-19T14:17:55;5.32;;;1.13;;
33902;SDS011;20194;50.950;5.346;2023-09-19T14:20:24;6.03;;;0.90;;
33902;SDS011;20194;50.950;5.346;2023-09-19T14:22:51;7.47;;;1.10;;
33902;SDS011;20194;50.950;5.346;2023-09-19T14:25:20;6.72;;;1.33;;
33902;SDS011;20194;50.950;5.346;2023-09-19T14:27:46;7.45;;;1.40;;
33902;SDS011;20194;50.950;5.346;2023-09-19T14:30:13;2.42;;;1.00;;
33902;SDS011;20194;50.950;5.346;2023-09-19T14:32:40;8.23;;;1.33;;
33902;SDS011;20194;50.950;5.346;2023-09-19T14:35:06;5.95;;;1.35;;
33902;SDS011;20194;50.950;5.346;2023-09-19T14:37:32;9.40;;;1.70;;
33902;SDS011;20194;50.950;5.346;2023-09-19T14:39:58;5.28;;;1.30;;
33902;SDS011;20194;50.950;5.346;2023-09-19T14:42:24;6.10;;;1.05;;
33902;SDS011;20194;50.950;5.346;2023-09-19T14:44:49;8.57;;;1.63;;
33902;SDS011;20194;50.950;5.346;2023-09-19T14:47:15;8.73;;;1.10;;
33902;SDS011;20194;50.950;5.346;2023-09-19T14:49:42;8.23;;;1.25;;
33902;SDS011;20194;50.950;5.346;2023-09-19T14:52:08;6.20;;;1.35;;
33902;SDS011;20194;50.950;5.346;2023-09-19T14:54:35;3.85;;;1.20;;
33902;SDS011;20194;50.950;5.346;2023-09-19T14:57:03;9.52;;;1.67;;
33902;SDS011;20194;50.950;5.346;2023-09-19T14:59:33;9.32;;;1.48;;
33902;SDS011;20194;50.950;5.346;2023-09-19T15:02:02;12.80;;;2.72;;
33902;SDS011;20194;50.950;5.346;2023-09-19T15:04:31;18.42;;;1.77;;
33902;SDS011;20194;50.950;5.346;2023-09-19T15:06:58;8.80;;;2.35;;
33902;SDS011;20194;50.950;5.346;2023-09-19T15:09:24;5.13;;;1.20;;
33902;SDS011;20194;50.950;5.346;2023-09-19T15:11:51;10.82;;;1.88;;
33902;SDS011;20194;50.950;5.346;2023-09-19T15:14:18;9.20;;;1.40;;
33902;SDS011;20194;50.950;5.346;2023-09-19T15:16:43;7.38;;;1.75;;
33902;SDS011;20194;50.950;5.346;2023-09-19T15:19:09;8.80;;;1.45;;
33902;SDS011;20194;50.950;5.346;2023-09-19T15:21:35;7.93;;;1.13;;
33902;SDS011;20194;50.950;5.346;2023-09-19T15:24:02;5.32;;;1.23;;
33902;SDS011;20194;50.950;5.346;2023-09-19T15:26:28;6.93;;;1.38;;
33902;SDS011;20194;50.950;5.346;2023-09-19T15:28:55;10.98;;;1.70;;
33902;SDS011;20194;50.950;5.346;2023-09-19T15:31:22;5.50;;;2.00;;
33902;SDS011;20194;50.950;5.346;2023-09-19T15:33:47;6.47;;;1.45;;
33902;SDS011;20194;50.950;5.346;2023-09-19T15:36:14;10.32;;;1.63;;
33902;SDS011;20194;50.950;5.346;2023-09-19T15:41:18;7.13;;;1.33;;
33902;SDS011;20194;50.950;5.346;2023-09-19T15:43:45;8.13;;;1.83;;
33902;SDS011;20194;50.950;5.346;2023-09-19T15:46:11;7.43;;;1.33;;
33902;SDS011;20194;50.950;5.346;2023-09-19T15:48:38;4.18;;;1.30;;
33902;SDS011;20194;50.950;5.346;2023-09-19T15:51:04;6.80;;;1.45;;
33902;SDS011;20194;50.950;5.346;2023-09-19T15:53:41;3.92;;;1.23;;